PWSweather.com
Personal Weather Stations
Station Observations
MAKAWAOWX1
Up Country Maui, Makawao, HI 96768

Up Country MauiMakawao, HI 96768

Lat: 20.856944, Lon: -156.3149667

Elevation: 1500

Station Type: Davis Vantage Pro

Latest ConditionsUpdated 9:20:18 PM HST Tuesday, May 5, 2015
Currently Today's Max Today's Min Today's Average
Temperature 65.6°F18.7°C 76.4°F24.7°C 65.2°F18.4°C 69.0°F20.6°C
Dew Point 58.2°F14.6°C 66.3°F19.1°C 56.2°F13.4°C 61.0°F16.1°C
Winds 7.2 mph E11.6 kmh E 16.0 mph E25.7 kmh E - 7.6 mph 12.2 kmh
Wind Gusts 11.0 mph17.7 kmh 23.0 mph37.0 kmh - -
Humidity 77% 89% 55% 76%
Pressure 29.99 in1015.6 mb 30.01 in1016.3 mb 29.92 in1013.2 mb -
Precipitation - 0.01 in0.3 mm - -
Hour Temp Dew Point Humidity Winds Wind Gusts Pressure Precip Precip Rate Daily Precip Total
09:20 PM 65.6°F18.7°C 58.2°F14.6°C 77% 7.2 mph E11.6 kmh E 11.0 mph17.7 kmh 29.99 in1015.6 mb - 0.00 in0.0 mm 0.01 in0.3 mm
09:10 PM 65.7°F18.7°C 58.3°F14.6°C 77% 3.9 mph E6.3 kmh E 10.0 mph16.1 kmh 29.98 in1015.2 mb - 0.00 in0.0 mm 0.01 in0.3 mm
09:00 PM 65.7°F18.7°C 60.0°F15.6°C 82% 6.5 mph ESE10.5 kmh ESE 9.0 mph14.5 kmh 29.98 in1015.2 mb - 0.00 in0.0 mm 0.01 in0.3 mm
08:50 PM 65.6°F18.7°C 60.6°F15.9°C 84% 6.6 mph E10.6 kmh E 17.0 mph27.4 kmh 29.98 in1015.2 mb - 0.00 in0.0 mm 0.01 in0.3 mm
08:40 PM 65.7°F18.7°C 60.7°F15.9°C 84% 7.0 mph E11.3 kmh E 10.0 mph16.1 kmh 29.98 in1015.2 mb - 0.00 in0.0 mm 0.01 in0.3 mm
08:30 PM 65.8°F18.8°C 60.2°F15.7°C 82% 8.2 mph E13.2 kmh E 16.0 mph25.7 kmh 29.98 in1015.2 mb - 0.00 in0.0 mm 0.01 in0.3 mm
08:20 PM 65.9°F18.8°C 60.2°F15.7°C 82% 10.6 mph E17.1 kmh E 14.0 mph22.5 kmh 29.98 in1015.2 mb - 0.00 in0.0 mm 0.01 in0.3 mm
08:10 PM 65.9°F18.8°C 60.2°F15.7°C 82% 5.7 mph E9.2 kmh E 9.0 mph14.5 kmh 29.97 in1014.9 mb - 0.00 in0.0 mm 0.01 in0.3 mm
08:00 PM 65.9°F18.8°C 60.9°F16.1°C 84% 8.6 mph ESE13.8 kmh ESE 13.0 mph20.9 kmh 29.97 in1014.9 mb - 0.00 in0.0 mm 0.01 in0.3 mm
07:50 PM 66.0°F18.9°C 61.0°F16.1°C 84% 6.7 mph ENE10.8 kmh ENE 10.0 mph16.1 kmh 29.97 in1014.9 mb - 0.00 in0.0 mm 0.01 in0.3 mm
07:40 PM 66.1°F18.9°C 61.5°F16.4°C 85% 10.9 mph E17.5 kmh E 14.0 mph22.5 kmh 29.97 in1014.9 mb - 0.00 in0.0 mm 0.01 in0.3 mm
07:30 PM 66.1°F18.9°C 60.8°F16.0°C 83% 8.5 mph E13.7 kmh E 10.0 mph16.1 kmh 29.97 in1014.9 mb - 0.00 in0.0 mm 0.01 in0.3 mm
07:20 PM 66.2°F19.0°C 60.5°F15.8°C 82% 7.9 mph E12.7 kmh E 14.0 mph22.5 kmh 29.97 in1014.9 mb - 0.00 in0.0 mm 0.01 in0.3 mm
07:10 PM 66.5°F19.2°C 60.5°F15.8°C 81% 9.7 mph E15.6 kmh E 12.0 mph19.3 kmh 29.97 in1014.9 mb - 0.00 in0.0 mm 0.01 in0.3 mm
07:00 PM 66.9°F19.4°C 59.8°F15.4°C 78% 8.3 mph E13.4 kmh E 11.0 mph17.7 kmh 29.97 in1014.9 mb - 0.00 in0.0 mm 0.01 in0.3 mm
06:50 PM 67.1°F19.5°C 58.9°F14.9°C 75% 2.6 mph E4.2 kmh E 11.0 mph17.7 kmh 29.96 in1014.6 mb - 0.00 in0.0 mm 0.01 in0.3 mm
06:40 PM 67.2°F19.6°C 58.7°F14.8°C 74% 11.0 mph ENE17.7 kmh ENE 13.0 mph20.9 kmh 29.96 in1014.6 mb - 0.00 in0.0 mm 0.01 in0.3 mm
06:30 PM 67.4°F19.7°C 59.9°F15.5°C 77% 5.2 mph ESE8.4 kmh ESE 10.0 mph16.1 kmh 29.96 in1014.6 mb - 0.00 in0.0 mm 0.01 in0.3 mm
06:20 PM 67.8°F19.9°C 61.1°F16.2°C 79% 7.2 mph E11.6 kmh E 10.0 mph16.1 kmh 29.96 in1014.6 mb - 0.00 in0.0 mm 0.01 in0.3 mm
06:10 PM 68.3°F20.2°C 61.1°F16.2°C 78% 8.7 mph E14.0 kmh E 18.0 mph29.0 kmh 29.96 in1014.6 mb - 0.00 in0.0 mm 0.01 in0.3 mm
06:00 PM 68.8°F20.4°C 60.6°F15.9°C 75% 8.6 mph ENE13.8 kmh ENE 13.0 mph20.9 kmh 29.96 in1014.6 mb - 0.00 in0.0 mm 0.01 in0.3 mm
05:50 PM 69.1°F20.6°C 60.1°F15.6°C 73% 6.7 mph E10.8 kmh E 11.0 mph17.7 kmh 29.96 in1014.6 mb - 0.00 in0.0 mm 0.01 in0.3 mm
05:40 PM 69.7°F20.9°C 60.6°F15.9°C 73% 7.1 mph E11.4 kmh E 13.0 mph20.9 kmh 29.95 in1014.2 mb - 0.00 in0.0 mm 0.01 in0.3 mm
05:30 PM 70.8°F21.6°C 61.7°F16.5°C 73% 7.4 mph E11.9 kmh E 15.0 mph24.1 kmh 29.95 in1014.2 mb - 0.00 in0.0 mm 0.01 in0.3 mm
05:20 PM 71.4°F21.9°C 59.4°F15.2°C 66% 5.5 mph E8.9 kmh E 12.0 mph19.3 kmh 29.94 in1013.9 mb - 0.00 in0.0 mm 0.01 in0.3 mm
05:10 PM 71.2°F21.8°C 59.7°F15.4°C 67% 5.8 mph E9.3 kmh E 17.0 mph27.4 kmh 29.94 in1013.9 mb - 0.00 in0.0 mm 0.01 in0.3 mm
05:00 PM 71.9°F22.2°C 62.0°F16.7°C 71% 8.4 mph ENE13.5 kmh ENE 13.0 mph20.9 kmh 29.94 in1013.9 mb - 0.00 in0.0 mm 0.01 in0.3 mm
04:50 PM 72.2°F22.3°C 61.9°F16.6°C 70% 5.8 mph ENE9.3 kmh ENE 11.0 mph17.7 kmh 29.94 in1013.9 mb - 0.00 in0.0 mm 0.01 in0.3 mm
04:40 PM 72.6°F22.6°C 61.9°F16.6°C 69% 7.7 mph E12.4 kmh E 14.0 mph22.5 kmh 29.94 in1013.9 mb - 0.00 in0.0 mm 0.01 in0.3 mm
04:30 PM 72.9°F22.7°C 60.9°F16.1°C 66% 7.4 mph E11.9 kmh E 12.0 mph19.3 kmh 29.94 in1013.9 mb - 0.00 in0.0 mm 0.01 in0.3 mm
04:20 PM 73.7°F23.2°C 59.4°F15.2°C 61% 10.4 mph E16.7 kmh E 14.0 mph22.5 kmh 29.94 in1013.9 mb - 0.00 in0.0 mm 0.01 in0.3 mm
04:10 PM 73.7°F23.2°C 59.0°F15.0°C 60% 8.3 mph E13.4 kmh E 12.0 mph19.3 kmh 29.94 in1013.9 mb - 0.00 in0.0 mm 0.01 in0.3 mm
04:00 PM 73.6°F23.1°C 57.4°F14.1°C 57% 6.8 mph SE10.9 kmh SE 10.0 mph16.1 kmh 29.94 in1013.9 mb - 0.00 in0.0 mm 0.01 in0.3 mm
03:50 PM 73.7°F23.2°C 58.5°F14.7°C 59% 8.3 mph E13.4 kmh E 10.0 mph16.1 kmh 29.94 in1013.9 mb - 0.00 in0.0 mm 0.01 in0.3 mm
03:40 PM 73.7°F23.2°C 58.0°F14.4°C 58% 12.0 mph E19.3 kmh E 16.0 mph25.7 kmh 29.95 in1014.2 mb - 0.00 in0.0 mm 0.01 in0.3 mm
03:30 PM 74.0°F23.3°C 58.8°F14.9°C 59% 9.6 mph E15.4 kmh E 11.0 mph17.7 kmh 29.95 in1014.2 mb - 0.00 in0.0 mm 0.01 in0.3 mm
03:20 PM 74.8°F23.8°C 59.5°F15.3°C 59% 9.2 mph E14.8 kmh E 14.0 mph22.5 kmh 29.95 in1014.2 mb - 0.00 in0.0 mm 0.01 in0.3 mm
03:10 PM 76.1°F24.5°C 61.2°F16.2°C 60% 5.6 mph E9.0 kmh E 19.0 mph30.6 kmh 29.95 in1014.2 mb - 0.00 in0.0 mm 0.01 in0.3 mm
03:00 PM 76.4°F24.7°C 59.0°F15.0°C 55% 11.6 mph ENE18.7 kmh ENE 13.0 mph20.9 kmh 29.95 in1014.2 mb - 0.00 in0.0 mm 0.01 in0.3 mm
02:50 PM 76.2°F24.6°C 60.3°F15.7°C 58% 6.0 mph E9.7 kmh E 9.0 mph14.5 kmh 29.95 in1014.2 mb - 0.00 in0.0 mm 0.01 in0.3 mm
02:40 PM 76.2°F24.6°C 61.3°F16.3°C 60% 9.1 mph NE14.6 kmh NE 11.0 mph17.7 kmh 29.95 in1014.2 mb - 0.00 in0.0 mm 0.01 in0.3 mm
02:30 PM 76.3°F24.6°C 61.4°F16.3°C 60% 10.3 mph E16.6 kmh E 16.0 mph25.7 kmh 29.95 in1014.2 mb - 0.00 in0.0 mm 0.01 in0.3 mm
02:20 PM 75.1°F23.9°C 61.6°F16.4°C 63% 5.7 mph E9.2 kmh E 15.0 mph24.1 kmh 29.95 in1014.2 mb - 0.00 in0.0 mm 0.01 in0.3 mm
02:10 PM 74.5°F23.6°C 62.0°F16.7°C 65% 7.1 mph SE11.4 kmh SE 17.0 mph27.4 kmh 29.96 in1014.6 mb - 0.00 in0.0 mm 0.01 in0.3 mm
02:00 PM 73.5°F23.1°C 62.3°F16.8°C 68% 10.7 mph ESE17.2 kmh ESE 21.0 mph33.8 kmh 29.96 in1014.6 mb - 0.00 in0.0 mm 0.01 in0.3 mm
01:50 PM 72.5°F22.5°C 60.9°F16.1°C 67% 13.4 mph ESE21.6 kmh ESE 21.0 mph33.8 kmh 29.96 in1014.6 mb - 0.00 in0.0 mm 0.01 in0.3 mm
01:40 PM 74.0°F23.3°C 65.2°F18.4°C 74% 11.7 mph E18.8 kmh E 22.0 mph35.4 kmh 29.97 in1014.9 mb - 0.00 in0.0 mm 0.01 in0.3 mm
01:30 PM 74.7°F23.7°C 65.4°F18.6°C 73% 11.9 mph E19.2 kmh E 21.0 mph33.8 kmh 29.97 in1014.9 mb - 0.00 in0.0 mm 0.01 in0.3 mm
01:20 PM 74.0°F23.3°C 65.2°F18.4°C 74% 9.6 mph E15.4 kmh E 16.0 mph25.7 kmh 29.97 in1014.9 mb - 0.00 in0.0 mm 0.01 in0.3 mm
01:10 PM 73.9°F23.3°C 64.3°F17.9°C 72% 10.7 mph E17.2 kmh E 19.0 mph30.6 kmh 29.97 in1014.9 mb - 0.00 in0.0 mm 0.01 in0.3 mm
01:00 PM 73.7°F23.2°C 65.3°F18.5°C 75% 7.2 mph E11.6 kmh E 15.0 mph24.1 kmh 29.97 in1014.9 mb - 0.00 in0.0 mm 0.01 in0.3 mm
12:50 PM 73.7°F23.2°C 65.3°F18.5°C 75% 9.5 mph E15.3 kmh E 20.0 mph32.2 kmh 29.98 in1015.2 mb - 0.00 in0.0 mm 0.01 in0.3 mm
12:40 PM 73.6°F23.1°C 65.2°F18.4°C 75% 16.0 mph E25.7 kmh E 23.0 mph37.0 kmh 29.98 in1015.2 mb - 0.00 in0.0 mm 0.01 in0.3 mm
12:30 PM 73.2°F22.9°C 66.3°F19.1°C 79% 12.6 mph E20.3 kmh E 17.0 mph27.4 kmh 29.98 in1015.2 mb - 0.00 in0.0 mm 0.01 in0.3 mm
12:20 PM 72.7°F22.6°C 65.4°F18.6°C 78% 10.9 mph ENE17.5 kmh ENE 14.0 mph22.5 kmh 29.98 in1015.2 mb - 0.00 in0.0 mm 0.01 in0.3 mm
12:10 PM 71.9°F22.2°C 65.0°F18.3°C 79% 13.4 mph E21.6 kmh E 22.0 mph35.4 kmh 29.98 in1015.2 mb - 0.00 in0.0 mm 0.01 in0.3 mm
12:00 PM 70.4°F21.3°C 64.6°F18.1°C 82% 9.5 mph ENE15.3 kmh ENE 13.0 mph20.9 kmh 29.99 in1015.6 mb - 0.00 in0.0 mm 0.01 in0.3 mm
11:50 AM 69.4°F20.8°C 64.4°F18.0°C 84% 12.1 mph E19.5 kmh E 15.0 mph24.1 kmh 30.00 in1015.9 mb - 0.00 in0.0 mm 0.01 in0.3 mm
11:40 AM 68.4°F20.2°C 65.1°F18.4°C 89% 10.2 mph E16.4 kmh E 16.0 mph25.7 kmh 30.01 in1016.3 mb - 0.00 in0.0 mm 0.01 in0.3 mm
11:30 AM 68.1°F20.1°C 64.4°F18.0°C 88% 8.1 mph ENE13.0 kmh ENE 15.0 mph24.1 kmh 30.01 in1016.3 mb - 0.01 in0.3 mm 0.01 in0.3 mm
11:20 AM 68.2°F20.1°C 64.5°F18.1°C 88% 5.4 mph E8.7 kmh E 15.0 mph24.1 kmh 30.01 in1016.3 mb - 0.00 in0.0 mm 0.00 in0.0 mm
11:10 AM 68.3°F20.2°C 64.6°F18.1°C 88% 0.2 mph E0.3 kmh E -- 30.01 in1016.3 mb - 0.00 in0.0 mm 0.00 in0.0 mm
11:00 AM 68.7°F20.4°C 64.7°F18.2°C 87% 8.7 mph E14.0 kmh E 17.0 mph27.4 kmh 30.01 in1016.3 mb - 0.00 in0.0 mm 0.00 in0.0 mm
10:50 AM 70.4°F21.3°C 64.2°F17.9°C 81% 7.5 mph ENE12.1 kmh ENE 13.0 mph20.9 kmh 30.01 in1016.3 mb - 0.00 in0.0 mm 0.00 in0.0 mm
10:40 AM 71.3°F21.8°C 64.4°F18.0°C 79% 10.5 mph E16.9 kmh E 16.0 mph25.7 kmh 30.01 in1016.3 mb - 0.00 in0.0 mm 0.00 in0.0 mm
10:30 AM 70.6°F21.4°C 63.8°F17.7°C 79% 3.7 mph E6.0 kmh E 9.0 mph14.5 kmh 30.00 in1015.9 mb - 0.00 in0.0 mm 0.00 in0.0 mm
10:20 AM 70.3°F21.3°C 64.2°F17.9°C 81% 6.2 mph E10.0 kmh E 11.0 mph17.7 kmh 30.00 in1015.9 mb - 0.00 in0.0 mm 0.00 in0.0 mm
10:10 AM 70.2°F21.2°C 63.7°F17.6°C 80% 9.4 mph E15.1 kmh E 14.0 mph22.5 kmh 30.01 in1016.3 mb - 0.00 in0.0 mm 0.00 in0.0 mm
10:00 AM 70.8°F21.6°C 63.9°F17.7°C 79% 11.1 mph ENE17.9 kmh ENE 19.0 mph30.6 kmh 30.00 in1015.9 mb - 0.00 in0.0 mm 0.00 in0.0 mm
09:50 AM 73.1°F22.8°C 63.6°F17.6°C 72% 10.8 mph E17.4 kmh E 17.0 mph27.4 kmh 29.99 in1015.6 mb - 0.00 in0.0 mm 0.00 in0.0 mm
09:40 AM 73.0°F22.8°C 64.2°F17.9°C 74% 7.9 mph SE12.7 kmh SE 15.0 mph24.1 kmh 30.00 in1015.9 mb - 0.00 in0.0 mm 0.00 in0.0 mm
09:30 AM 71.9°F22.2°C 63.2°F17.3°C 74% 10.9 mph E17.5 kmh E 18.0 mph29.0 kmh 30.00 in1015.9 mb - 0.00 in0.0 mm 0.00 in0.0 mm
09:20 AM 70.3°F21.3°C 62.4°F16.9°C 76% 4.5 mph E7.2 kmh E 11.0 mph17.7 kmh 30.00 in1015.9 mb - 0.00 in0.0 mm 0.00 in0.0 mm
09:10 AM 70.2°F21.2°C 61.9°F16.6°C 75% 10.2 mph ENE16.4 kmh ENE 12.0 mph19.3 kmh 30.00 in1015.9 mb - 0.00 in0.0 mm 0.00 in0.0 mm
09:00 AM 70.5°F21.4°C 62.2°F16.8°C 75% 7.9 mph E12.7 kmh E 10.0 mph16.1 kmh 29.99 in1015.6 mb - 0.00 in0.0 mm 0.00 in0.0 mm
08:50 AM 71.3°F21.8°C 62.6°F17.0°C 74% 1.8 mph ESE2.9 kmh ESE 8.0 mph12.9 kmh 30.00 in1015.9 mb - 0.00 in0.0 mm 0.00 in0.0 mm
08:40 AM 70.8°F21.6°C 61.3°F16.3°C 72% 6.9 mph S11.1 kmh S 12.0 mph19.3 kmh 29.99 in1015.6 mb - 0.00 in0.0 mm 0.00 in0.0 mm
08:30 AM 69.3°F20.7°C 62.5°F16.9°C 79% 5.7 mph ESE9.2 kmh ESE 14.0 mph22.5 kmh 29.99 in1015.6 mb - 0.00 in0.0 mm 0.00 in0.0 mm
08:20 AM 68.0°F20.0°C 61.9°F16.6°C 81% 6.4 mph E10.3 kmh E 9.0 mph14.5 kmh 29.99 in1015.6 mb - 0.00 in0.0 mm 0.00 in0.0 mm
08:10 AM 67.3°F19.6°C 62.0°F16.7°C 83% 4.6 mph ESE7.4 kmh ESE 13.0 mph20.9 kmh 29.99 in1015.6 mb - 0.00 in0.0 mm 0.00 in0.0 mm
08:00 AM 67.0°F19.4°C 62.3°F16.8°C 85% 7.9 mph ESE12.7 kmh ESE 13.0 mph20.9 kmh 29.98 in1015.2 mb - 0.00 in0.0 mm 0.00 in0.0 mm
07:50 AM 67.2°F19.6°C 61.5°F16.4°C 82% 7.7 mph E12.4 kmh E 9.0 mph14.5 kmh 29.98 in1015.2 mb - 0.00 in0.0 mm 0.00 in0.0 mm
07:40 AM 67.3°F19.6°C 60.6°F15.9°C 79% 8.5 mph E13.7 kmh E 10.0 mph16.1 kmh 29.98 in1015.2 mb - 0.00 in0.0 mm 0.00 in0.0 mm
07:30 AM 67.4°F19.7°C 60.0°F15.6°C 77% 5.8 mph ESE9.3 kmh ESE 12.0 mph19.3 kmh 29.98 in1015.2 mb - 0.00 in0.0 mm 0.00 in0.0 mm
07:20 AM 67.8°F19.9°C 60.0°F15.6°C 76% 9.1 mph E14.6 kmh E 15.0 mph24.1 kmh 29.97 in1014.9 mb - 0.00 in0.0 mm 0.00 in0.0 mm
07:10 AM 67.2°F19.6°C 60.1°F15.6°C 78% Calm Calm -- 29.97 in1014.9 mb - 0.00 in0.0 mm 0.00 in0.0 mm
07:00 AM 66.3°F19.1°C 60.6°F15.9°C 82% 8.2 mph E13.2 kmh E 13.0 mph20.9 kmh 29.96 in1014.6 mb - 0.00 in0.0 mm 0.00 in0.0 mm
06:50 AM 66.2°F19.0°C 60.9°F16.1°C 83% 9.2 mph E14.8 kmh E 14.0 mph22.5 kmh 29.95 in1014.2 mb - 0.00 in0.0 mm 0.00 in0.0 mm
06:40 AM 66.1°F18.9°C 60.4°F15.8°C 82% 0.3 mph ESE0.5 kmh ESE 2.0 mph3.2 kmh 29.95 in1014.2 mb - 0.00 in0.0 mm 0.00 in0.0 mm
06:30 AM 66.2°F19.0°C 60.2°F15.7°C 81% 5.0 mph E8.0 kmh E 9.0 mph14.5 kmh 29.94 in1013.9 mb - 0.00 in0.0 mm 0.00 in0.0 mm
06:20 AM 66.0°F18.9°C 58.6°F14.8°C 77% 4.5 mph ESE7.2 kmh ESE 8.0 mph12.9 kmh 29.95 in1014.2 mb - 0.00 in0.0 mm 0.00 in0.0 mm
06:10 AM 65.9°F18.8°C 58.8°F14.9°C 78% 3.3 mph SE5.3 kmh SE 5.0 mph8.0 kmh 29.94 in1013.9 mb - 0.00 in0.0 mm 0.00 in0.0 mm
06:00 AM 66.1°F18.9°C 59.7°F15.4°C 80% 12.2 mph E19.6 kmh E 16.0 mph25.7 kmh 29.93 in1013.5 mb - 0.00 in0.0 mm 0.00 in0.0 mm
05:50 AM 66.4°F19.1°C 58.6°F14.8°C 76% 7.0 mph E11.3 kmh E 12.0 mph19.3 kmh 29.93 in1013.5 mb - 0.00 in0.0 mm 0.00 in0.0 mm
05:40 AM 65.9°F18.8°C 57.0°F13.9°C 73% 11.2 mph E18.0 kmh E 14.0 mph22.5 kmh 29.94 in1013.9 mb - 0.00 in0.0 mm 0.00 in0.0 mm
05:30 AM 65.5°F18.6°C 56.2°F13.4°C 72% 4.0 mph ENE6.4 kmh ENE 8.0 mph12.9 kmh 29.93 in1013.5 mb - 0.00 in0.0 mm 0.00 in0.0 mm
05:20 AM 65.6°F18.7°C 57.5°F14.2°C 75% 8.1 mph E13.0 kmh E 9.0 mph14.5 kmh 29.93 in1013.5 mb - 0.00 in0.0 mm 0.00 in0.0 mm
05:10 AM 65.7°F18.7°C 58.3°F14.6°C 77% 9.1 mph E14.6 kmh E 17.0 mph27.4 kmh 29.93 in1013.5 mb - 0.00 in0.0 mm 0.00 in0.0 mm
05:00 AM 65.9°F18.8°C 57.7°F14.3°C 75% 4.5 mph SE7.2 kmh SE 8.0 mph12.9 kmh 29.93 in1013.5 mb - 0.00 in0.0 mm 0.00 in0.0 mm
04:50 AM 65.6°F18.7°C 57.1°F13.9°C 74% 10.9 mph E17.5 kmh E 15.0 mph24.1 kmh 29.93 in1013.5 mb - 0.00 in0.0 mm 0.00 in0.0 mm
04:40 AM 65.5°F18.6°C 57.0°F13.9°C 74% 4.9 mph SE7.9 kmh SE 8.0 mph12.9 kmh 29.93 in1013.5 mb - 0.00 in0.0 mm 0.00 in0.0 mm
04:30 AM 65.7°F18.7°C 57.5°F14.2°C 75% 1.0 mph ESE1.6 kmh ESE 4.0 mph6.4 kmh 29.93 in1013.5 mb - 0.00 in0.0 mm 0.00 in0.0 mm
04:20 AM 65.5°F18.6°C 58.1°F14.5°C 77% 5.6 mph E9.0 kmh E 13.0 mph20.9 kmh 29.92 in1013.2 mb - 0.00 in0.0 mm 0.00 in0.0 mm
04:10 AM 65.5°F18.6°C 57.7°F14.3°C 76% 7.0 mph E11.3 kmh E 9.0 mph14.5 kmh 29.93 in1013.5 mb - 0.00 in0.0 mm 0.00 in0.0 mm
04:00 AM 65.4°F18.6°C 57.3°F14.1°C 75% 0.9 mph SE1.4 kmh SE 3.0 mph4.8 kmh 29.93 in1013.5 mb - 0.00 in0.0 mm 0.00 in0.0 mm
03:50 AM 65.3°F18.5°C 57.2°F14.0°C 75% 4.9 mph SE7.9 kmh SE 6.0 mph9.7 kmh 29.93 in1013.5 mb - 0.00 in0.0 mm 0.00 in0.0 mm
03:40 AM 65.2°F18.4°C 57.8°F14.3°C 77% 5.0 mph E8.0 kmh E 8.0 mph12.9 kmh 29.93 in1013.5 mb - 0.00 in0.0 mm 0.00 in0.0 mm
03:30 AM 65.3°F18.5°C 58.9°F14.9°C 80% 0.8 mph ESE1.3 kmh ESE 10.0 mph16.1 kmh 29.93 in1013.5 mb - 0.00 in0.0 mm 0.00 in0.0 mm
03:20 AM 65.4°F18.6°C 59.8°F15.4°C 82% 6.4 mph ESE10.3 kmh ESE 8.0 mph12.9 kmh 29.94 in1013.9 mb - 0.00 in0.0 mm 0.00 in0.0 mm
03:10 AM 65.6°F18.7°C 60.3°F15.7°C 83% 9.9 mph E15.9 kmh E 17.0 mph27.4 kmh 29.94 in1013.9 mb - 0.00 in0.0 mm 0.00 in0.0 mm
03:00 AM 65.7°F18.7°C 60.7°F15.9°C 84% 9.2 mph ESE14.8 kmh ESE 16.0 mph25.7 kmh 29.94 in1013.9 mb - 0.00 in0.0 mm 0.00 in0.0 mm
02:50 AM 65.6°F18.7°C 60.3°F15.7°C 83% 8.1 mph E13.0 kmh E 12.0 mph19.3 kmh 29.94 in1013.9 mb - 0.00 in0.0 mm 0.00 in0.0 mm
02:40 AM 66.1°F18.9°C 60.5°F15.8°C 82% 8.3 mph SE13.4 kmh SE 17.0 mph27.4 kmh 29.94 in1013.9 mb - 0.00 in0.0 mm 0.00 in0.0 mm
02:30 AM 66.5°F19.2°C 60.5°F15.8°C 81% 6.6 mph ESE10.6 kmh ESE 6.0 mph9.7 kmh 29.94 in1013.9 mb - 0.00 in0.0 mm 0.00 in0.0 mm
02:20 AM 66.3°F19.1°C 59.9°F15.5°C 80% 3.3 mph E5.3 kmh E 10.0 mph16.1 kmh 29.94 in1013.9 mb - 0.00 in0.0 mm 0.00 in0.0 mm
02:10 AM 66.4°F19.1°C 60.4°F15.8°C 81% 8.3 mph E13.4 kmh E 14.0 mph22.5 kmh 29.94 in1013.9 mb - 0.00 in0.0 mm 0.00 in0.0 mm
02:00 AM 66.6°F19.2°C 60.6°F15.9°C 81% 11.1 mph E17.9 kmh E 21.0 mph33.8 kmh 29.95 in1014.2 mb - 0.00 in0.0 mm 0.00 in0.0 mm
01:50 AM 66.5°F19.2°C 61.2°F16.2°C 83% 6.5 mph E10.5 kmh E 16.0 mph25.7 kmh 29.94 in1013.9 mb - 0.00 in0.0 mm 0.00 in0.0 mm
01:40 AM 66.6°F19.2°C 61.6°F16.4°C 84% 10.0 mph E16.1 kmh E 21.0 mph33.8 kmh 29.95 in1014.2 mb - 0.00 in0.0 mm 0.00 in0.0 mm
01:30 AM 66.5°F19.2°C 61.2°F16.2°C 83% 9.2 mph E14.8 kmh E 19.0 mph30.6 kmh 29.95 in1014.2 mb - 0.00 in0.0 mm 0.00 in0.0 mm
01:20 AM 66.5°F19.2°C 61.2°F16.2°C 83% 6.4 mph E10.3 kmh E 8.0 mph12.9 kmh 29.95 in1014.2 mb - 0.00 in0.0 mm 0.00 in0.0 mm
01:10 AM 66.4°F19.1°C 61.4°F16.3°C 84% 2.2 mph E3.5 kmh E 10.0 mph16.1 kmh 29.95 in1014.2 mb - 0.00 in0.0 mm 0.00 in0.0 mm
01:00 AM 66.7°F19.3°C 61.3°F16.3°C 83% 9.4 mph E15.1 kmh E 15.0 mph24.1 kmh 29.95 in1014.2 mb - 0.00 in0.0 mm 0.00 in0.0 mm
12:50 AM 67.2°F19.6°C 60.8°F16.0°C 80% 7.6 mph SE12.2 kmh SE 11.0 mph17.7 kmh 29.95 in1014.2 mb - 0.00 in0.0 mm 0.00 in0.0 mm
12:40 AM 66.7°F19.3°C 59.6°F15.3°C 78% 5.1 mph SE8.2 kmh SE 14.0 mph22.5 kmh 29.95 in1014.2 mb - 0.00 in0.0 mm 0.00 in0.0 mm
12:30 AM 66.8°F19.3°C 60.7°F15.9°C 81% 6.7 mph ESE10.8 kmh ESE 10.0 mph16.1 kmh 29.95 in1014.2 mb - 0.00 in0.0 mm 0.00 in0.0 mm
12:20 AM 67.0°F19.4°C 61.0°F16.1°C 81% 6.3 mph E10.1 kmh E 12.0 mph19.3 kmh 29.95 in1014.2 mb - 0.00 in0.0 mm 0.00 in0.0 mm
12:10 AM 67.3°F19.6°C 61.2°F16.2°C 81% 6.7 mph ESE10.8 kmh ESE 9.0 mph14.5 kmh 29.96 in1014.6 mb - 0.00 in0.0 mm 0.00 in0.0 mm
12:00 AM 67.6°F19.8°C 60.9°F16.1°C 79% 5.5 mph ESE8.9 kmh ESE 12.0 mph19.3 kmh 29.96 in1014.6 mb - 0.00 in0.0 mm 0.00 in0.0 mm